createdAt,value
2023-04-11T00:00:55.944Z,89.70
2023-04-11T00:03:23.111Z,89.80
2023-04-11T00:05:50.008Z,90.00
2023-04-11T00:08:16.755Z,90.00
2023-04-11T00:10:45.476Z,90.00
2023-04-11T00:13:12.637Z,90.10
2023-04-11T00:15:39.303Z,90.10
2023-04-11T00:18:06.970Z,90.30
2023-04-11T00:20:33.899Z,90.30
2023-04-11T00:23:00.626Z,90.30
2023-04-11T00:25:29.595Z,90.30
2023-04-11T00:27:56.388Z,90.40
2023-04-11T00:30:23.287Z,90.50
2023-04-11T00:32:51.237Z,90.50
2023-04-11T00:35:18.964Z,90.60
2023-04-11T00:37:46.832Z,90.60
2023-04-11T00:40:16.022Z,90.70
2023-04-11T00:42:42.705Z,90.80
2023-04-11T00:45:09.958Z,91.10
2023-04-11T00:47:36.929Z,90.90
2023-04-11T00:50:04.018Z,90.90
2023-04-11T00:52:30.785Z,90.90
2023-04-11T00:54:58.216Z,90.90
2023-04-11T00:57:25.896Z,91.00
2023-04-11T00:59:53.148Z,91.00
2023-04-11T01:02:19.903Z,90.90
2023-04-11T01:04:47.048Z,91.00
2023-04-11T01:07:15.692Z,91.00
2023-04-11T01:09:42.542Z,91.20
2023-04-11T01:12:10.608Z,91.00
2023-04-11T01:14:37.651Z,91.10
2023-04-11T01:17:04.530Z,91.10
2023-04-11T01:19:31.403Z,91.00
2023-04-11T01:21:59.388Z,90.90
2023-04-11T01:24:26.447Z,90.80
2023-04-11T01:26:53.655Z,90.70
2023-04-11T01:29:20.557Z,90.70
2023-04-11T01:31:47.225Z,90.70
2023-04-11T01:34:14.874Z,90.70
2023-04-11T01:36:42.428Z,90.70
2023-04-11T01:39:09.316Z,90.70
2023-04-11T01:41:37.232Z,90.70
2023-04-11T01:44:04.738Z,90.70
2023-04-11T01:46:31.962Z,90.60
2023-04-11T01:49:01.544Z,90.70
2023-04-11T01:51:28.412Z,90.90
2023-04-11T01:53:55.708Z,90.80
2023-04-11T01:56:22.400Z,90.90
2023-04-11T01:58:49.201Z,90.90
2023-04-11T02:01:19.982Z,91.00
2023-04-11T02:03:46.837Z,92.00
2023-04-11T02:06:15.720Z,91.50
2023-04-11T02:08:45.422Z,91.80
2023-04-11T02:11:12.283Z,91.80
2023-04-11T02:13:38.960Z,91.90
2023-04-11T02:16:11.574Z,92.10
2023-04-11T02:18:38.431Z,92.50
2023-04-11T02:21:06.232Z,92.10
2023-04-11T02:23:33.810Z,92.30
2023-04-11T02:26:01.708Z,92.20
2023-04-11T02:28:28.680Z,92.20
2023-04-11T02:30:56.185Z,92.40
2023-04-11T02:33:23.030Z,92.00
2023-04-11T02:35:49.818Z,92.00
2023-04-11T02:38:16.624Z,91.90
2023-04-11T02:40:43.262Z,91.80
2023-04-11T02:43:09.942Z,91.80
2023-04-11T02:45:37.466Z,91.80
2023-04-11T02:48:05.609Z,91.80
2023-04-11T02:50:36.159Z,91.80
2023-04-11T02:53:02.802Z,91.80
2023-04-11T02:55:29.672Z,91.80
2023-04-11T02:57:56.347Z,91.80
2023-04-11T03:00:23.073Z,92.00
2023-04-11T03:02:59.319Z,92.10
2023-04-11T03:05:27.164Z,92.00
2023-04-11T03:07:54.268Z,92.20
2023-04-11T03:10:20.947Z,92.20
2023-04-11T03:12:47.911Z,92.30
2023-04-11T03:15:15.558Z,92.50
2023-04-11T03:17:42.628Z,92.50
2023-04-11T03:20:13.572Z,92.60
2023-04-11T03:22:44.540Z,92.50
2023-04-11T03:25:11.528Z,92.40
2023-04-11T03:27:38.811Z,92.40
2023-04-11T03:30:07.703Z,92.40
2023-04-11T03:32:42.954Z,92.40
2023-04-11T03:35:09.820Z,92.30
2023-04-11T03:37:39.578Z,92.30
2023-04-11T03:40:09.203Z,92.20
2023-04-11T03:42:38.982Z,92.50
2023-04-11T03:45:08.557Z,92.40
2023-04-11T03:47:35.488Z,92.40
2023-04-11T03:50:03.829Z,92.40
2023-04-11T03:52:37.469Z,92.40
2023-04-11T03:55:10.089Z,92.40
2023-04-11T03:57:36.794Z,92.50
2023-04-11T04:00:07.569Z,92.50
2023-04-11T04:02:42.263Z,92.50
2023-04-11T04:05:13.384Z,92.40
2023-04-11T04:07:42.207Z,92.40
2023-04-11T04:10:15.964Z,92.40
2023-04-11T04:12:44.778Z,92.50
2023-04-11T04:15:15.381Z,92.60
2023-04-11T04:17:45.692Z,92.70
2023-04-11T04:20:18.183Z,92.50
2023-04-11T04:22:49.954Z,92.50
2023-04-11T04:25:20.869Z,92.50
2023-04-11T04:27:53.918Z,92.50
2023-04-11T04:30:23.935Z,92.40
2023-04-11T04:33:02.852Z,92.40
2023-04-11T04:35:31.379Z,92.30
2023-04-11T04:38:06.035Z,92.40
2023-04-11T04:41:01.927Z,92.80
2023-04-11T04:43:32.261Z,92.10
2023-04-11T04:46:08.681Z,91.70
2023-04-11T04:48:48.761Z,91.70
2023-04-11T04:51:15.444Z,91.10
2023-04-11T04:53:42.619Z,91.00
2023-04-11T04:56:11.643Z,90.90
2023-04-11T04:58:41.091Z,90.80
2023-04-11T05:01:11.533Z,90.70
2023-04-11T05:03:38.993Z,90.80
2023-04-11T05:06:10.660Z,91.00
2023-04-11T05:08:38.794Z,91.10
2023-04-11T05:11:07.808Z,91.10
2023-04-11T05:13:35.894Z,91.20
2023-04-11T05:16:04.351Z,91.30
2023-04-11T05:18:31.242Z,91.50
2023-04-11T05:20:58.255Z,91.70
2023-04-11T05:23:30.936Z,91.70
2023-04-11T05:26:01.215Z,91.70
2023-04-11T05:28:31.041Z,91.80
2023-04-11T05:30:58.688Z,91.80
2023-04-11T05:33:25.695Z,91.60
2023-04-11T05:35:52.949Z,91.20
2023-04-11T05:38:20.655Z,90.70
2023-04-11T05:40:47.574Z,90.40
2023-04-11T05:43:15.111Z,90.30
2023-04-11T05:45:42.645Z,90.40
2023-04-11T05:48:09.404Z,90.50
2023-04-11T05:50:36.662Z,90.70
2023-04-11T05:53:03.548Z,90.90
2023-04-11T05:55:31.337Z,91.00
2023-04-11T05:57:57.968Z,91.00
2023-04-11T06:00:25.966Z,91.20
2023-04-11T06:02:52.815Z,91.20
2023-04-11T06:05:21.113Z,91.40
2023-04-11T06:07:47.902Z,91.60
2023-04-11T06:10:14.679Z,91.90
2023-04-11T06:12:41.415Z,92.20
2023-04-11T06:15:09.284Z,92.50
2023-04-11T06:17:36.138Z,92.80
2023-04-11T06:20:06.114Z,92.90
2023-04-11T06:22:33.061Z,93.20
2023-04-11T06:24:59.767Z,93.40
2023-04-11T06:27:27.211Z,93.60
2023-04-11T06:29:54.248Z,93.80
2023-04-11T06:32:21.877Z,93.90
2023-04-11T06:34:48.590Z,93.90
2023-04-11T06:37:15.553Z,94.00
2023-04-11T06:39:42.233Z,94.10
2023-04-11T06:42:08.954Z,93.80
2023-04-11T06:44:36.138Z,93.50
2023-04-11T06:47:03.390Z,93.20
2023-04-11T06:49:30.084Z,93.00
2023-04-11T06:51:59.351Z,93.00
2023-04-11T06:54:26.156Z,92.90
2023-04-11T06:56:53.122Z,92.90
2023-04-11T06:59:20.341Z,93.00
2023-04-11T07:01:49.494Z,93.10
2023-04-11T07:04:17.069Z,93.20
2023-04-11T07:06:43.863Z,93.40
2023-04-11T07:09:12.430Z,93.30
2023-04-11T07:11:39.192Z,93.50
2023-04-11T07:14:06.047Z,93.80
2023-04-11T07:16:33.266Z,94.40
2023-04-11T07:19:00.150Z,94.90
2023-04-11T07:21:31.794Z,94.70
2023-04-11T07:24:00.315Z,94.80
2023-04-11T07:26:31.942Z,95.10
2023-04-11T07:28:59.497Z,94.90
2023-04-11T07:31:27.273Z,94.60
2023-04-11T07:33:54.252Z,94.40
2023-04-11T07:36:21.499Z,94.30
2023-04-11T07:38:48.273Z,94.00
2023-04-11T07:41:16.238Z,93.00
2023-04-11T07:43:43.042Z,92.40
2023-04-11T07:46:09.897Z,92.10
2023-04-11T07:48:36.753Z,91.60
2023-04-11T07:51:03.473Z,91.50
2023-04-11T07:53:32.537Z,92.20
2023-04-11T07:55:59.408Z,92.10
2023-04-11T07:58:26.085Z,91.80
2023-04-11T08:00:53.516Z,91.20
2023-04-11T08:03:20.926Z,90.60
2023-04-11T08:05:47.824Z,90.50
2023-04-11T08:08:14.444Z,91.30
2023-04-11T08:10:41.077Z,91.40
2023-04-11T08:13:07.734Z,91.30
2023-04-11T08:15:36.775Z,91.20
2023-04-11T08:18:05.340Z,90.50
2023-04-11T08:20:32.022Z,90.30
2023-04-11T08:22:59.357Z,90.40
2023-04-11T08:25:26.374Z,87.70
2023-04-11T08:27:53.245Z,84.80
2023-04-11T08:30:20.590Z,81.90
2023-04-11T08:32:47.389Z,78.90
2023-04-11T08:35:14.221Z,76.70
2023-04-11T08:37:41.377Z,76.10
2023-04-11T08:40:09.034Z,76.00
2023-04-11T08:42:35.974Z,76.10
2023-04-11T08:45:05.264Z,76.30
2023-04-11T08:47:32.259Z,75.60
2023-04-11T08:49:58.972Z,76.40
2023-04-11T08:52:26.191Z,75.90
2023-04-11T08:54:57.135Z,74.80
2023-04-11T08:57:31.137Z,72.60
2023-04-11T09:00:09.213Z,72.60
2023-04-11T09:02:36.088Z,72.20
2023-04-11T09:05:02.885Z,72.80
2023-04-11T09:07:29.600Z,73.30
2023-04-11T09:09:56.294Z,73.50
2023-04-11T09:12:30.185Z,72.90
2023-04-11T09:14:56.882Z,69.60
2023-04-11T09:17:23.703Z,70.60
2023-04-11T09:19:50.508Z,70.00
2023-04-11T09:22:17.171Z,69.10
2023-04-11T09:24:43.863Z,68.80
2023-04-11T09:27:13.578Z,68.40
2023-04-11T09:29:45.376Z,68.00
2023-04-11T09:32:41.542Z,66.60
2023-04-11T09:35:15.703Z,63.20
2023-04-11T09:37:53.820Z,63.70
2023-04-11T09:40:23.102Z,62.70
2023-04-11T09:42:57.761Z,63.60
2023-04-11T09:45:25.449Z,62.60
2023-04-11T09:47:56.997Z,63.90
2023-04-11T09:50:25.066Z,64.20
2023-04-11T09:52:52.807Z,63.60
2023-04-11T09:55:22.759Z,63.60
2023-04-11T09:57:51.267Z,63.80
2023-04-11T10:00:21.437Z,62.20
2023-04-11T10:02:52.804Z,61.60
2023-04-11T10:05:20.942Z,60.50
2023-04-11T10:08:17.200Z,60.50
2023-04-11T10:10:44.301Z,59.20
2023-04-11T10:13:39.273Z,59.70
2023-04-11T10:16:15.892Z,58.00
2023-04-11T10:18:54.765Z,58.40
2023-04-11T10:21:30.684Z,57.10
2023-04-11T10:24:07.710Z,57.60
2023-04-11T10:26:47.513Z,57.80
2023-04-11T10:29:40.856Z,58.00
2023-04-11T10:32:16.252Z,58.50
2023-04-11T10:34:54.908Z,59.10
2023-04-11T10:37:32.762Z,58.60
2023-04-11T10:40:02.469Z,58.40
2023-04-11T10:42:35.030Z,58.40
2023-04-11T10:45:24.321Z,57.30
2023-04-11T10:47:57.282Z,56.20
2023-04-11T10:50:26.808Z,56.60
2023-04-11T10:53:00.980Z,56.80
2023-04-11T10:55:30.019Z,56.70
2023-04-11T10:58:10.609Z,56.80
2023-04-11T11:00:49.679Z,56.50
2023-04-11T11:03:24.540Z,56.40
2023-04-11T11:06:05.560Z,56.50
2023-04-11T11:08:37.985Z,56.40
2023-04-11T11:11:06.862Z,56.50
2023-04-11T11:13:51.935Z,57.00
2023-04-11T11:16:26.123Z,56.50
2023-04-11T11:18:55.038Z,56.30
2023-04-11T11:21:27.896Z,56.40
2023-04-11T11:23:57.337Z,56.40
2023-04-11T11:26:41.274Z,56.00
2023-04-11T11:29:08.941Z,56.00
2023-04-11T11:31:42.550Z,56.30
2023-04-11T11:34:22.753Z,55.90
2023-04-11T11:36:50.475Z,56.30
2023-04-11T11:39:17.694Z,56.40
2023-04-11T11:41:44.634Z,56.80
2023-04-11T11:44:31.171Z,57.20
2023-04-11T11:47:05.253Z,57.30
2023-04-11T11:49:51.566Z,57.00
2023-04-11T11:52:35.018Z,56.90
2023-04-11T11:55:03.453Z,57.20
2023-04-11T11:57:30.160Z,57.80
2023-04-11T11:59:58.418Z,57.20
2023-04-11T12:02:26.596Z,56.90
2023-04-11T12:05:01.048Z,56.80
2023-04-11T12:07:32.741Z,56.50
2023-04-11T12:10:13.450Z,56.10
2023-04-11T12:12:41.897Z,55.50
2023-04-11T12:15:16.962Z,55.90
2023-04-11T12:17:47.949Z,55.80
2023-04-11T12:20:17.699Z,56.00
2023-04-11T12:22:44.451Z,55.70
2023-04-11T12:25:13.355Z,56.20
2023-04-11T12:27:42.000Z,56.00
2023-04-11T12:30:10.477Z,55.70
2023-04-11T12:32:37.382Z,55.70
2023-04-11T12:35:05.732Z,55.70
2023-04-11T12:37:33.034Z,55.90
2023-04-11T12:40:00.414Z,55.90
2023-04-11T12:42:27.654Z,55.80
2023-04-11T12:44:54.442Z,55.80
2023-04-11T12:47:21.246Z,55.80
2023-04-11T12:49:47.949Z,55.70
2023-04-11T12:52:14.628Z,55.50
2023-04-11T12:54:41.333Z,55.50
2023-04-11T12:57:08.103Z,55.60
2023-04-11T12:59:34.798Z,55.50
2023-04-11T13:02:02.018Z,55.30
2023-04-11T13:04:28.903Z,55.30
2023-04-11T13:07:00.676Z,55.30
2023-04-11T13:09:34.191Z,55.40
2023-04-11T13:12:04.034Z,55.30
2023-04-11T13:14:30.961Z,54.90
2023-04-11T13:16:57.624Z,54.80
2023-04-11T13:19:24.388Z,54.80
2023-04-11T13:21:51.100Z,54.80
2023-04-11T13:24:17.813Z,54.70
2023-04-11T13:26:44.984Z,54.60
2023-04-11T13:29:14.865Z,54.40
2023-04-11T13:31:41.796Z,54.50
2023-04-11T13:34:08.524Z,54.50
2023-04-11T13:36:35.453Z,54.70
2023-04-11T13:39:02.263Z,54.70
2023-04-11T13:41:29.009Z,54.70
2023-04-11T13:43:55.960Z,54.60
2023-04-11T13:46:23.194Z,54.60
2023-04-11T13:48:49.933Z,54.80
2023-04-11T13:51:16.623Z,54.80
2023-04-11T13:53:43.314Z,54.70
2023-04-11T13:56:11.221Z,54.80
2023-04-11T13:58:38.808Z,54.80
2023-04-11T14:01:06.622Z,54.90
2023-04-11T14:03:33.878Z,54.70
2023-04-11T14:06:01.202Z,54.50
2023-04-11T14:08:29.006Z,54.40
2023-04-11T14:10:55.949Z,54.30
2023-04-11T14:13:22.734Z,54.60
2023-04-11T14:15:54.787Z,54.70
2023-04-11T14:18:28.021Z,55.00
2023-04-11T14:20:56.536Z,54.50
2023-04-11T14:23:23.312Z,54.30
2023-04-11T14:25:50.583Z,54.20
2023-04-11T14:28:18.199Z,54.10
2023-04-11T14:30:45.258Z,54.00
2023-04-11T14:33:12.035Z,54.00
2023-04-11T14:35:38.974Z,54.20
2023-04-11T14:38:05.616Z,54.30
2023-04-11T14:40:32.223Z,54.10
2023-04-11T14:42:58.922Z,53.80
2023-04-11T14:45:25.748Z,53.70
2023-04-11T14:47:52.653Z,53.70
2023-04-11T14:50:19.416Z,53.60
2023-04-11T14:52:48.080Z,53.70
2023-04-11T14:55:14.716Z,53.80
2023-04-11T14:57:51.378Z,53.60
2023-04-11T15:00:22.317Z,53.30
2023-04-11T15:02:54.848Z,53.50
2023-04-11T15:05:23.078Z,53.30
2023-04-11T15:07:51.830Z,53.50
2023-04-11T15:10:23.015Z,53.50
2023-04-11T15:12:49.798Z,53.60
2023-04-11T15:15:16.517Z,53.60
2023-04-11T15:17:48.007Z,53.80
2023-04-11T15:20:16.007Z,54.60
2023-04-11T15:22:44.683Z,54.00
2023-04-11T15:25:13.327Z,53.80
2023-04-11T15:27:40.715Z,53.70
2023-04-11T15:30:07.924Z,53.70
2023-04-11T15:32:34.818Z,53.70
2023-04-11T15:35:01.727Z,53.60
2023-04-11T15:37:28.453Z,53.50
2023-04-11T15:39:55.519Z,53.50
2023-04-11T15:42:22.173Z,53.40
2023-04-11T15:44:48.851Z,54.30
2023-04-11T15:47:16.603Z,53.50
2023-04-11T15:49:43.560Z,53.20
2023-04-11T15:52:10.502Z,53.00
2023-04-11T15:54:37.220Z,53.10
2023-04-11T15:57:04.048Z,53.10
2023-04-11T15:59:30.816Z,52.90
2023-04-11T16:01:57.752Z,53.20
2023-04-11T16:04:25.380Z,53.10
2023-04-11T16:06:52.562Z,53.30
2023-04-11T16:09:19.329Z,53.30
2023-04-11T16:11:45.993Z,53.50
2023-04-11T16:14:12.853Z,53.50
2023-04-11T16:16:39.632Z,53.50
2023-04-11T16:19:06.972Z,53.20
2023-04-11T16:21:33.655Z,52.80
2023-04-11T16:24:00.369Z,52.80
2023-04-11T16:26:27.188Z,52.80
2023-04-11T16:28:53.821Z,52.70
2023-04-11T16:31:24.444Z,52.50
2023-04-11T16:33:52.616Z,52.50
2023-04-11T16:36:20.494Z,52.70
2023-04-11T16:38:49.495Z,52.60
2023-04-11T16:41:17.258Z,52.70
2023-04-11T16:43:44.279Z,52.80
2023-04-11T16:46:13.181Z,53.00
2023-04-11T16:48:41.570Z,53.10
2023-04-11T16:51:10.804Z,53.20
2023-04-11T16:53:38.163Z,53.10
2023-04-11T16:56:05.250Z,53.30
2023-04-11T16:58:32.622Z,53.10
2023-04-11T17:01:00.589Z,52.90
2023-04-11T17:03:27.490Z,52.90
2023-04-11T17:05:54.450Z,53.00
2023-04-11T17:08:21.202Z,53.00
2023-04-11T17:10:47.852Z,53.10
2023-04-11T17:13:15.836Z,53.20
2023-04-11T17:15:42.509Z,53.10
2023-04-11T17:18:09.206Z,52.90
2023-04-11T17:20:36.011Z,53.20
2023-04-11T17:23:02.817Z,53.00
2023-04-11T17:25:30.050Z,53.10
2023-04-11T17:27:57.586Z,53.00
2023-04-11T17:30:24.262Z,53.30
2023-04-11T17:32:50.993Z,53.30
2023-04-11T17:35:17.902Z,53.50
2023-04-11T17:37:44.552Z,53.60
2023-04-11T17:40:12.720Z,53.50
2023-04-11T17:42:40.136Z,53.60
2023-04-11T17:45:16.722Z,53.60
2023-04-11T17:47:44.307Z,53.80
2023-04-11T17:50:13.214Z,54.00
2023-04-11T17:52:45.034Z,54.10
2023-04-11T17:55:14.071Z,54.00
2023-04-11T17:57:41.140Z,54.10
2023-04-11T18:00:25.757Z,54.20
2023-04-11T18:02:57.757Z,54.30
2023-04-11T18:05:27.027Z,54.30
2023-04-11T18:07:56.237Z,54.40
2023-04-11T18:10:23.912Z,54.60
2023-04-11T18:12:51.979Z,54.70
2023-04-11T18:15:19.129Z,54.70
2023-04-11T18:17:45.961Z,54.70
2023-04-11T18:20:14.072Z,54.90
2023-04-11T18:22:45.930Z,55.00
2023-04-11T18:25:13.088Z,55.00
2023-04-11T18:27:40.759Z,55.10
2023-04-11T18:30:11.704Z,54.90
2023-04-11T18:32:43.195Z,54.90
2023-04-11T18:35:12.840Z,54.70
2023-04-11T18:37:40.601Z,54.80
2023-04-11T18:40:11.647Z,55.00
2023-04-11T18:42:44.240Z,55.20
2023-04-11T18:45:12.203Z,55.40
2023-04-11T18:47:40.246Z,55.50
2023-04-11T18:50:08.666Z,55.70
2023-04-11T18:52:35.551Z,56.00
2023-04-11T18:55:03.614Z,56.30
2023-04-11T18:57:33.583Z,56.40
2023-04-11T19:00:12.905Z,56.60
2023-04-11T19:02:41.917Z,56.80
2023-04-11T19:05:13.602Z,57.00
2023-04-11T19:07:42.418Z,57.30
2023-04-11T19:10:10.399Z,57.30
2023-04-11T19:12:37.456Z,57.50
2023-04-11T19:15:07.603Z,57.60
2023-04-11T19:17:36.007Z,57.80
2023-04-11T19:20:06.619Z,57.80
2023-04-11T19:22:34.527Z,57.80
2023-04-11T19:25:01.307Z,57.90
2023-04-11T19:27:28.001Z,58.10
2023-04-11T19:29:54.684Z,58.20
2023-04-11T19:32:21.403Z,58.20
2023-04-11T19:34:49.468Z,58.30
2023-04-11T19:37:19.125Z,58.40
2023-04-11T19:39:46.189Z,58.60
2023-04-11T19:42:12.879Z,58.70
2023-04-11T19:44:39.883Z,58.70
2023-04-11T19:47:06.809Z,58.80
2023-04-11T19:49:33.569Z,58.70
2023-04-11T19:52:00.245Z,58.80
2023-04-11T19:54:26.924Z,58.90
2023-04-11T19:56:53.981Z,58.90
2023-04-11T19:59:20.889Z,58.90
2023-04-11T20:01:49.770Z,59.00
2023-04-11T20:04:17.809Z,59.00
2023-04-11T20:06:46.368Z,59.20
2023-04-11T20:09:13.074Z,59.30
2023-04-11T20:11:39.814Z,59.20
2023-04-11T20:14:07.140Z,59.20
2023-04-11T20:16:33.964Z,59.30
2023-04-11T20:19:01.488Z,59.30
2023-04-11T20:21:28.278Z,59.30
2023-04-11T20:23:55.069Z,59.40
2023-04-11T20:26:22.407Z,59.50
2023-04-11T20:28:50.285Z,59.70
2023-04-11T20:31:16.990Z,60.50
2023-04-11T20:33:45.231Z,59.70
2023-04-11T20:36:11.923Z,60.50
2023-04-11T20:38:38.606Z,59.80
2023-04-11T20:41:06.157Z,59.80
2023-04-11T20:43:32.898Z,59.70
2023-04-11T20:45:59.609Z,59.70
2023-04-11T20:48:30.161Z,59.60
2023-04-11T20:50:56.846Z,59.50
2023-04-11T20:53:23.923Z,59.50
2023-04-11T20:55:51.352Z,59.60
2023-04-11T20:58:20.619Z,59.60
2023-04-11T21:00:47.663Z,59.50
2023-04-11T21:03:14.810Z,59.60
2023-04-11T21:05:44.190Z,59.60
2023-04-11T21:08:14.265Z,59.60
2023-04-11T21:10:40.987Z,59.60
2023-04-11T21:13:07.788Z,59.60
2023-04-11T21:15:34.823Z,59.80
2023-04-11T21:18:01.929Z,59.70
2023-04-11T21:20:28.832Z,59.80
2023-04-11T21:22:55.722Z,59.90
2023-04-11T21:25:23.453Z,60.00
2023-04-11T21:27:50.400Z,60.00
2023-04-11T21:30:17.132Z,60.00
2023-04-11T21:32:43.924Z,60.10
2023-04-11T21:35:11.445Z,60.20
2023-04-11T21:37:38.229Z,60.30
2023-04-11T21:40:05.471Z,60.40
2023-04-11T21:42:32.161Z,60.40
2023-04-11T21:44:58.835Z,60.50
2023-04-11T21:47:25.637Z,60.50
2023-04-11T21:49:52.398Z,60.70
2023-04-11T21:52:19.109Z,60.80
2023-04-11T21:54:46.423Z,61.00
2023-04-11T21:57:13.236Z,61.10
2023-04-11T21:59:39.917Z,61.10
2023-04-11T22:02:06.811Z,61.30
2023-04-11T22:04:47.556Z,61.40
2023-04-11T22:07:26.427Z,62.30
2023-04-11T22:09:59.501Z,61.50
2023-04-11T22:12:27.077Z,61.70
2023-04-11T22:14:56.921Z,61.90
2023-04-11T22:17:23.599Z,62.10
2023-04-11T22:19:50.277Z,62.20
2023-04-11T22:22:17.772Z,62.30
2023-04-11T22:24:46.359Z,62.60
2023-04-11T22:27:13.577Z,62.70
2023-04-11T22:29:41.262Z,62.90
2023-04-11T22:32:08.398Z,63.20
2023-04-11T22:34:35.477Z,63.30
2023-04-11T22:37:02.119Z,63.40
2023-04-11T22:39:28.822Z,63.60
2023-04-11T22:41:55.578Z,63.80
2023-04-11T22:44:22.341Z,63.90
2023-04-11T22:47:06.437Z,64.10
2023-04-11T22:49:41.866Z,64.70
2023-04-11T22:52:14.318Z,64.30
2023-04-11T22:54:42.349Z,65.20
2023-04-11T22:57:09.142Z,64.40
2023-04-11T22:59:36.662Z,64.40
2023-04-11T23:02:03.566Z,64.50
2023-04-11T23:04:32.032Z,64.60
2023-04-11T23:06:59.458Z,64.60
2023-04-11T23:09:26.458Z,64.70
2023-04-11T23:11:53.340Z,64.70
2023-04-11T23:14:21.057Z,64.80
2023-04-11T23:16:48.269Z,65.00
2023-04-11T23:19:15.028Z,65.10
2023-04-11T23:21:42.021Z,65.20
2023-04-11T23:24:09.009Z,65.20
2023-04-11T23:26:36.025Z,65.50
2023-04-11T23:29:02.802Z,65.60
2023-04-11T23:31:31.406Z,65.60
2023-04-11T23:33:58.396Z,65.60
2023-04-11T23:36:26.629Z,65.70
2023-04-11T23:38:53.353Z,65.70
2023-04-11T23:41:20.276Z,65.70
2023-04-11T23:43:47.050Z,66.60
2023-04-11T23:46:13.839Z,65.90
2023-04-11T23:48:40.649Z,66.00
2023-04-11T23:51:08.197Z,66.00
2023-04-11T23:53:34.815Z,66.10
2023-04-11T23:56:01.649Z,66.20
2023-04-11T23:58:28.303Z,66.30
